Terminal Aerodrome Forecast
Issued by NWS

Home | Current Version | Previous Version | Text Only | Print | Product List | Glossary Off
Versions: 1 2 3 4 5 6 7 8 9 10 11 12 13 14 15 16 17 18 19 20

000
FTUS43 KGRB 011100
TAFAUW
TAF
KAUW 011137Z 0112/0212 18007KT P6SM VCTS BKN090CB WS012/20035KT
      TEMPO 0112/0116 4SM SHRA SCT009 OVC015
     FM011600 24010G16KT 6SM BR VCSH SCT009 OVC015
     FM012000 27010G18KT P6SM SCT015 BKN150
     FM020000 27010KT P6SM FEW100 SCT200
     FM020300 27006KT P6SM SCT200
     FM020800 26003KT 3SM BR SCT200=

USA.gov is the U.S. government's official web portal to all federal, state and local government web resources and services.